LDSPLYTV

Guest
Details From LDSP - SPLIT
To LYTV - Tivat
Flight Number -
Tags generated
Created
Modified
Stats Distance 126 nm / 234 km
Max Altitude 3,000 ft / 914 m
Waypoints 3
Social Downloads 3
Likes 0
Share VATSIM

Download

Looking for another format? Having issues loading an existing format? Contact us
Advertisement - Login to hide

Notes

Basic altitude profile: - Ascent Rate: 2000ft/min - Ascent Speed: 140kts - Cruise Altitude: 3000ft - Cruise Speed: 120kts - Descent Rate: 1000ft/min - Descent Speed: 100kts

Route

LDSP KOPAV LYTV

ID Type Via Altitude Latitude Longitude Leg Dist Tot Dist Heading (true) Name
O LDSP APT - 0 ft / 0 m 43.53903˚ 16.29811˚ - 0 nm - SPLIT
KOPAV FIX - 3,000 ft / 914 m 42.61472˚ 18.30639˚ 104 nm 104 nm 122° / 123° -
O LYTV APT - 0 ft / 0 m 42.40466˚ 18.72329˚ 22 nm 126 nm 124° / 124° Tivat

Altitude Profile

Advertisement - Login to hide

LDSP

Details ICAO LDSP (SPU)
Name SPLIT
Region Croatia
Timezone Europe/Zagreb (UTC+2.0)
Stats Elevation 79 ft / 24 m (AMSL)
Location 43.539026° 16.298112°
Runways 1
Magnetic Variation 3.885° E

METAR

LDSP 280300Z AUTO 36006KT CAVOK 19/16 Q1017 NOSIG

Decode

TAF

TAF LDSP 272325Z 2800/2900 31006KT CAVOK TX29/2812Z TN20/2804Z BECMG 2809/2811 23010KT BECMG 2815/2817 23006KT BECMG 2817/2819 33005KT

Decode

Departure Runways

ID Width Length Bearing (true) Bearing (mag) Surface Threshold Offset Overrun Length
05 148 ft / 45 m 8,357 ft / 2,547 m 52.48° 48.59° Asphalt 0 ft / 0 m 76 ft / 23 m
23 148 ft / 45 m 8,357 ft / 2,547 m 232.50° 228.61° Asphalt 525 ft / 160 m 820 ft / 250 m

LYTV

Details ICAO LYTV (TIV)
Name Tivat
Region Serbia and Montenegro
Timezone Europe/Podgorica (UTC+2.0)
Stats Elevation 20 ft / 6 m (AMSL)
Location 42.404657° 18.723295°
Runways 1
Magnetic Variation 4.210° E

METAR

LYTV 280300Z VRB01KT CAVOK 17/16 Q1017

Decode

TAF

TAF LYTV 272300Z 2800/2824 07005KT 9999 FEW040 TX31/2813Z TN16/2803Z PROB30 TEMPO 2813/2818 5000 TSRA FEW033CB BKN040

Decode

Destination Runways

ID Width Length Bearing (true) Bearing (mag) Surface Threshold Offset Overrun Length
14 148 ft / 45 m 8,206 ft / 2,501 m 139.03° 134.82° Asphalt 300 ft / 91 m 0 ft / 0 m
32 148 ft / 45 m 8,206 ft / 2,501 m 319.04° 314.83° Asphalt 300 ft / 91 m 0 ft / 0 m

Approach Navaids

Runway Type Ident Frequency Range Bearing (true) Bearing (mag) Slope Elevation
32 Localiser TIV 111.30 MHz 50 nm / 93 km 339.00° 334.79° - 56 ft / 17 m (AMSL)
32 DME TIV 111.30 MHz 18 nm / 33 km - - - 49 ft / 15 m (AMSL)

Popular Alternatives